Southeast Shoal, OH

11:11 AM EDT on May 03, 2015 (GMT -0400)
MARITIME | | Change Station
CLOSE
Current Station
Personal Weather Station
Location: Mears, MI
Elevation: 551 ft
Nearby Weather Stations

Elev 551 ft 43.60 °N, 86.60 °W | Updated 1 hour ago

Clear
Clear
55 °F
Feels Like 55 °F
N
18
Wind Variable Wind from SSE
Gusts 0.0 mph

Today
High -- | Low -- °F
--% Chance of Precip.
Yesterday
High -- | Low -- °F
Precip. -- in
6:23 AM 8:29 PM
Full, 100% visible
Pressure 30.08 in
Visibility 10.0 miles
Clouds Clear
Dew Point Not available.
Humidity Not available.
Rainfall in
Snow Depth Not available.
UV 7 out of 12
Pollen Not available.
Air Quality Not available.
Flu Activity Regional
METAR KPCW 031452Z AUTO 23006KT 10SM CLR 23/11 A3008 RMK AO2 50004 T02330111 $

More Conditions Fewer Conditions

Pressure 30.08 in
Visibility 10.0 miles
Clouds Clear
Dew Point Not available.
Humidity Not available.
Rainfall in
Snow Depth Not available.
UV 7 out of 12
Pollen Not available.
Air Quality Not available.
Flu Activity Regional
METAR KPCW 031452Z AUTO 23006KT 10SM CLR 23/11 A3008 RMK AO2 50004 T02330111 $

More Conditions Fewer Conditions

10-Day Weather Forecast

Almanac

Astronomy

May. 03, 2015 Rise Set
Actual Time
Civil Twilight
Nautical Twilight
Astronomical Twilight
Moon
Length of Visible Light
Length of Day
Tomorrow will be .
, % of the Moon is Illuminated

Today's Extremes

State Highs State Lows

Community

WunderPhotos

Upload Photos

1,818,248 photos uploaded!

WunderBlogs® & News

Nearby

Air Quality

  Air Quality AQ Index Pollutant
Not available.

Snow Depth

Station Depth Elevation

Earthquake Activity

City Distance Mag. Time & Date
Minimum magnitude displayed is 2.5.

Coastal Water Temperatures

Place Temperature

Stations

Nearby Weather Stations

Station Location Temp. Windchill Dew Point Humidity Wind Precip. Elev Updated Type